createdAt,value
2016-07-12T16:04:56.409Z,39.51
2016-07-12T16:05:41.146Z,40.09
2016-07-12T16:06:42.028Z,39.32
2016-07-12T16:08:41.951Z,39.51
2016-07-12T16:09:42.094Z,39.61
2016-07-12T16:10:42.418Z,39.78
2016-07-12T16:11:41.301Z,40.46
2016-07-12T16:12:42.046Z,41.43
2016-07-12T16:13:41.271Z,41.72
2016-07-12T16:14:41.461Z,41.53
2016-07-12T16:15:42.050Z,41.72
2016-07-12T16:16:41.238Z,41.72
2016-07-12T16:17:41.336Z,41.53
2016-07-12T16:18:41.336Z,41.14
2016-07-12T16:19:41.318Z,41.31
2016-07-12T16:20:42.243Z,42.09
2016-07-12T16:21:41.546Z,42.21
2016-07-12T16:22:42.445Z,42.77
2016-07-12T16:23:41.342Z,42.79
2016-07-12T16:24:41.449Z,43.06
2016-07-12T16:25:41.349Z,43.64
2016-07-12T16:26:41.349Z,44.23
2016-07-12T16:27:42.298Z,42.96
2016-07-12T16:28:42.547Z,43.64
2016-07-12T16:29:41.459Z,43.93
2016-07-12T16:30:42.127Z,44.23
2016-07-12T16:31:41.616Z,43.66
2016-07-12T16:32:41.474Z,42.6
2016-07-12T16:33:41.888Z,41.7
2016-07-12T16:34:42.234Z,42.09
2016-07-12T16:35:41.465Z,42.09
2016-07-12T16:36:42.434Z,42.48
2016-07-12T16:37:42.224Z,42.29
2016-07-12T16:38:56.384Z,42.09
2016-07-12T16:39:41.541Z,42.48
2016-07-12T16:40:41.663Z,42.77
2016-07-12T16:41:42.285Z,42.67
2016-07-12T16:42:41.617Z,42.38
2016-07-12T16:43:41.642Z,42.19
2016-07-12T16:44:41.634Z,42.67
2016-07-12T16:45:41.625Z,43.54
2016-07-12T16:46:41.633Z,43.35
2016-07-12T16:47:41.647Z,43.84
2016-07-12T16:48:42.070Z,43.64
2016-07-12T16:49:41.926Z,43.54
2016-07-12T16:50:42.433Z,43.64
2016-07-12T16:51:42.432Z,43.64
2016-07-12T16:52:41.715Z,43.26
2016-07-12T16:53:41.731Z,43.26
2016-07-12T16:54:42.687Z,43.54
2016-07-12T16:55:42.047Z,43.26
2016-07-12T16:56:42.067Z,42.67
2016-07-12T16:57:41.787Z,43.06
2016-07-12T16:58:42.101Z,42.77
2016-07-12T16:59:42.559Z,43.26
2016-07-12T17:00:41.831Z,42.96
2016-07-12T17:01:41.852Z,42.86
2016-07-12T17:02:41.864Z,42.38
2016-07-12T17:03:41.871Z,42.48
2016-07-12T17:04:42.031Z,42.96
2016-07-12T17:05:41.910Z,42.67
2016-07-12T17:06:41.922Z,42.48
2016-07-12T17:07:56.996Z,42.77
2016-07-12T17:08:42.672Z,43.06
2016-07-12T17:09:42.697Z,42.48
2016-07-12T17:10:42.907Z,42.55
2016-07-12T17:11:42.010Z,42.85
2016-07-12T17:12:42.003Z,42.94
2016-07-12T17:13:56.884Z,42.85
2016-07-12T17:14:42.769Z,43.04
2016-07-12T17:15:42.298Z,43.33
2016-07-12T17:16:56.926Z,43.13
2016-07-12T17:17:42.093Z,43.52
2016-07-12T17:18:42.842Z,43.33
2016-07-12T17:19:42.262Z,43.52
2016-07-12T17:20:42.236Z,43.43
2016-07-12T17:21:42.133Z,43.43
2016-07-12T17:22:42.948Z,43.99
2016-07-12T17:23:42.223Z,44.1
2016-07-12T17:24:42.504Z,43.7
2016-07-12T17:25:43.062Z,44.18
2016-07-12T17:26:42.284Z,44.18
2016-07-12T17:27:42.511Z,44.09
2016-07-12T17:28:42.335Z,43.89
2016-07-12T17:29:43.114Z,44.18
2016-07-12T17:30:42.381Z,44.57
2016-07-12T17:31:42.347Z,44.86
2016-07-12T17:32:42.478Z,44.64
2016-07-12T17:33:43.279Z,45.13
2016-07-12T17:34:42.445Z,45.03
2016-07-12T17:35:43.318Z,45.9
2016-07-12T17:36:42.543Z,45.03
2016-07-12T17:37:43.347Z,45.32
2016-07-12T17:38:42.514Z,45.22
2016-07-12T17:40:42.592Z,46.29
2016-07-12T17:41:43.163Z,45.81
2016-07-12T17:42:42.435Z,46.39
2016-07-12T17:43:42.434Z,46.19
2016-07-12T17:44:42.475Z,46.77
2016-07-12T17:45:43.239Z,46.67
2016-07-12T17:46:43.320Z,46.29
2016-07-12T17:47:43.629Z,46.67
2016-07-12T17:48:43.393Z,46.46
2016-07-12T17:49:57.419Z,46.46
2016-07-12T17:50:42.532Z,46.26
2016-07-12T17:51:57.861Z,46.46
2016-07-12T17:52:43.061Z,46.94
2016-07-12T17:53:43.575Z,47.24
2016-07-12T17:54:42.585Z,46.75
2016-07-12T17:56:44.219Z,47.43
2016-07-12T17:57:42.705Z,47.33
2016-07-12T17:58:43.643Z,47.62
2016-07-12T17:59:42.780Z,47.72
2016-07-12T18:00:57.766Z,47.62
2016-07-12T18:01:42.773Z,47.81
2016-07-12T18:02:42.751Z,48.01
2016-07-12T18:03:57.573Z,48.01
2016-07-12T18:04:43.638Z,48.2
2016-07-12T18:05:43.706Z,47.99
2016-07-12T18:06:43.738Z,48.2
2016-07-12T18:07:43.587Z,48.66
2016-07-12T18:08:43.072Z,49.05
2016-07-12T18:09:43.766Z,49.05
2016-07-12T18:10:42.939Z,49.34
2016-07-12T18:11:43.708Z,49.05
2016-07-12T18:12:43.713Z,49.54
2016-07-12T18:13:44.350Z,49.54
2016-07-12T18:14:43.120Z,49.63
2016-07-12T18:15:43.874Z,49.82
2016-07-12T18:16:43.988Z,49.73
2016-07-12T18:17:43.214Z,49.73
2016-07-12T18:18:43.709Z,49.82
2016-07-12T18:19:43.078Z,50.4
2016-07-12T18:20:43.812Z,50.57
2016-07-12T18:21:43.732Z,51.25
2016-07-12T18:22:43.066Z,51.15
2016-07-12T18:23:43.913Z,52.31
2016-07-12T18:24:43.285Z,52.61
2016-07-12T18:25:44.053Z,52.41
2016-07-12T18:26:44.019Z,52.7
2016-07-12T18:27:43.277Z,52.8
2016-07-12T18:28:44.171Z,52.99
2016-07-12T18:29:43.982Z,53.06
2016-07-12T18:30:43.073Z,52.97
2016-07-12T18:31:44.110Z,53.06
2016-07-12T18:32:43.105Z,53.06
2016-07-12T18:33:57.956Z,52.58
2016-07-12T18:34:43.421Z,53.06
2016-07-12T18:35:44.687Z,52.97
2016-07-12T18:36:44.176Z,53.06
2016-07-12T18:37:43.626Z,52.87
2016-07-12T18:39:44.497Z,53.16
2016-07-12T18:40:44.231Z,53.25
2016-07-12T18:41:43.344Z,53.93
2016-07-12T18:42:44.241Z,53.64
2016-07-12T18:43:44.072Z,53.83
2016-07-12T18:44:44.109Z,53.83
2016-07-12T18:45:44.138Z,53.55
2016-07-12T18:46:43.344Z,53.23
2016-07-12T18:47:43.640Z,53.13
2016-07-12T18:48:43.479Z,53.23
2016-07-12T18:49:43.457Z,53.74
2016-07-12T18:50:43.671Z,53.91
2016-07-12T18:51:43.775Z,53.71
2016-07-12T18:52:44.431Z,53.55
2016-07-12T18:53:43.607Z,53.91
2016-07-12T18:54:44.465Z,53.81
2016-07-12T18:55:43.426Z,54.87
2016-07-12T18:56:44.505Z,54.49
2016-07-12T18:57:44.341Z,54.97
2016-07-12T18:58:43.571Z,54.68
2016-07-12T18:59:43.589Z,54.87
2016-07-12T19:00:43.996Z,54.77
2016-07-12T19:01:43.535Z,54.49
2016-07-12T19:02:43.534Z,54.19
2016-07-12T19:03:44.311Z,54.68
2016-07-12T19:04:44.564Z,54
2016-07-12T19:05:45.123Z,54.39
2016-07-12T19:06:43.563Z,53.91
2016-07-12T19:08:44.630Z,53.81
2016-07-12T19:09:43.594Z,54
2016-07-12T19:10:43.549Z,54
2016-07-12T19:11:43.657Z,54.19
2016-07-12T19:12:43.885Z,53.91
2016-07-12T19:13:43.954Z,54.29
2016-07-12T19:14:43.906Z,54
2016-07-12T19:15:43.667Z,54
2016-07-12T19:16:43.888Z,53.71
2016-07-12T19:17:43.759Z,54.19
2016-07-12T19:18:43.712Z,54.58
2016-07-12T19:19:43.940Z,54.17
2016-07-12T19:20:43.885Z,54.19
2016-07-12T19:21:43.674Z,54.65
2016-07-12T19:22:43.687Z,54.07
2016-07-12T19:23:44.623Z,54.55
2016-07-12T19:24:43.828Z,54.36
2016-07-12T19:25:44.045Z,54.36
2016-07-12T19:26:43.887Z,54.75
2016-07-12T19:27:43.829Z,54.65
2016-07-12T19:29:44.200Z,54.75
2016-07-12T19:30:43.884Z,54.75
2016-07-12T19:31:43.987Z,55.23
2016-07-12T19:32:43.871Z,54.94
2016-07-12T19:33:44.019Z,54.65
2016-07-12T19:34:44.719Z,54.65
2016-07-12T19:35:44.746Z,54.75
2016-07-12T19:36:44.013Z,54.94
2016-07-12T19:37:43.925Z,55.62
2016-07-12T19:38:44.188Z,56
2016-07-12T19:39:44.118Z,55.71
2016-07-12T19:40:44.234Z,55.9
2016-07-12T19:41:44.015Z,56
2016-07-12T19:42:44.314Z,55.9
2016-07-12T19:43:44.829Z,56.48
2016-07-12T19:44:44.355Z,56.58
2016-07-12T19:45:44.130Z,56.94
2016-07-12T19:46:44.263Z,56.26
2016-07-12T19:47:44.082Z,56.48
2016-07-12T19:48:45.000Z,56.48
2016-07-12T19:49:44.127Z,56.65
2016-07-12T19:50:44.151Z,56.65
2016-07-12T19:51:44.513Z,56.68
2016-07-12T19:52:44.189Z,56.36
2016-07-12T19:54:45.019Z,56.94
2016-07-12T19:55:45.031Z,57.14
2016-07-12T19:56:44.163Z,56.84
2016-07-12T19:57:44.142Z,56.74
2016-07-12T19:58:44.250Z,56.65
2016-07-12T19:59:44.143Z,56.56
2016-07-12T20:00:44.263Z,56.07
2016-07-12T20:01:44.228Z,56.16
2016-07-12T20:02:44.172Z,56.26
2016-07-12T20:03:44.278Z,56.36
2016-07-12T20:04:59.060Z,55.98
2016-07-12T20:05:44.963Z,55.98
2016-07-12T20:06:44.317Z,55.88
2016-07-12T20:07:44.221Z,55.49
2016-07-12T20:08:44.238Z,55.59
2016-07-12T20:09:44.341Z,55.59
2016-07-12T20:11:44.563Z,55.01
2016-07-12T20:12:44.514Z,55.49
2016-07-12T20:13:45.345Z,55.4
2016-07-12T20:14:45.195Z,55.49
2016-07-12T20:15:44.390Z,55.1
2016-07-12T20:16:44.407Z,54.82
2016-07-12T20:17:44.433Z,55.1
2016-07-12T20:18:45.199Z,55.2
2016-07-12T20:19:45.215Z,54.91
2016-07-12T20:20:44.642Z,54.91
2016-07-12T20:21:44.542Z,54.91
2016-07-12T20:22:44.504Z,54.72
2016-07-12T20:23:44.417Z,54.62
2016-07-12T20:24:44.560Z,55.4
2016-07-12T20:25:45.620Z,54.72
2016-07-12T20:26:44.580Z,54.82
2016-07-12T20:27:44.905Z,55.3
2016-07-12T20:28:44.518Z,55.2
2016-07-12T20:29:45.293Z,54.82
2016-07-12T20:30:44.571Z,55.2
2016-07-12T20:31:45.472Z,55.1
2016-07-12T20:32:44.996Z,54.91
2016-07-12T20:33:44.530Z,55.01
2016-07-12T20:34:44.886Z,54.91
2016-07-12T20:35:44.580Z,54.5
2016-07-12T20:36:45.298Z,54.72
2016-07-12T20:37:44.565Z,54.98
2016-07-12T20:38:45.305Z,54.98
2016-07-12T20:39:44.600Z,54.79
2016-07-12T20:40:44.702Z,55.18
2016-07-12T20:41:44.622Z,54.69
2016-07-12T20:42:44.630Z,55.27
2016-07-12T20:43:44.646Z,55.36
2016-07-12T20:44:45.599Z,54.88
2016-07-12T20:45:45.408Z,55.18
2016-07-12T20:46:44.684Z,54.98
2016-07-12T20:47:44.689Z,54.98
2016-07-12T20:48:44.692Z,54.79
2016-07-12T20:49:44.712Z,54.69
2016-07-12T20:50:44.730Z,55.27
2016-07-12T20:51:45.469Z,54.79
2016-07-12T20:52:45.484Z,55.27
2016-07-12T20:53:45.482Z,55.27
2016-07-12T20:54:44.766Z,55.46
2016-07-12T20:55:44.789Z,54.88
2016-07-12T20:56:44.785Z,55.08
2016-07-12T20:57:44.794Z,55.66
2016-07-12T20:58:45.574Z,55.18
2016-07-12T20:59:45.563Z,55.18
2016-07-12T21:00:44.836Z,55.36
2016-07-12T21:01:44.862Z,55.46
2016-07-12T21:02:44.855Z,55.18
2016-07-12T21:03:44.879Z,55.46
2016-07-12T21:04:45.658Z,55.46
2016-07-12T21:05:44.889Z,55.27
2016-07-12T21:06:44.935Z,55.56
2016-07-12T21:07:45.155Z,55.94
2016-07-12T21:08:44.971Z,55.27
2016-07-12T21:09:44.939Z,55.56
2016-07-12T21:10:45.682Z,55.46
2016-07-12T21:11:44.965Z,55.76
2016-07-12T21:12:45.698Z,55.94
2016-07-12T21:13:45.010Z,56.43
2016-07-12T21:14:45.000Z,56.33
2016-07-12T21:15:45.228Z,56.59
2016-07-12T21:16:45.022Z,56.88
2016-07-12T21:17:45.757Z,56.88
2016-07-12T21:18:45.040Z,56.69
2016-07-12T21:19:45.053Z,56.72
2016-07-12T21:20:59.926Z,56.69
2016-07-12T21:21:45.823Z,57.27
2016-07-12T21:22:45.813Z,57.37
2016-07-12T21:23:45.820Z,57.37
2016-07-12T21:24:45.146Z,57.17
2016-07-12T21:25:45.112Z,57.65
2016-07-12T21:26:45.152Z,58.04
2016-07-12T21:27:45.149Z,58.33
2016-07-12T21:28:45.898Z,58.52
2016-07-12T21:29:45.179Z,58.52
2016-07-12T21:30:45.172Z,59.48
2016-07-12T21:31:45.178Z,59.3
2016-07-12T21:32:45.217Z,59.3
2016-07-12T21:33:45.411Z,58.81
2016-07-12T21:34:45.216Z,59.48
2016-07-12T21:35:45.229Z,59.68
2016-07-12T21:36:45.240Z,59.27
2016-07-12T21:37:45.995Z,59.17
2016-07-12T21:38:46.007Z,59.55
2016-07-12T21:39:46.004Z,59.17
2016-07-12T21:40:46.211Z,58.3
2016-07-12T21:41:46.018Z,58.78
2016-07-12T21:42:46.031Z,58.78
2016-07-12T21:43:46.049Z,58.4
2016-07-12T21:44:45.327Z,58.2
2016-07-12T21:45:45.340Z,58.4
2016-07-12T21:46:45.359Z,58.78
2016-07-12T21:47:45.352Z,58.01
2016-07-12T21:48:46.092Z,58.49
2016-07-12T21:49:45.984Z,58.4
2016-07-12T21:50:45.620Z,58.2
2016-07-12T21:52:45.428Z,59.17
2016-07-12T21:53:45.487Z,58.59
2016-07-12T21:54:45.678Z,58.3
2016-07-12T21:55:45.446Z,58.88
2016-07-12T21:56:45.516Z,59.36
2016-07-12T21:57:45.459Z,58.97
2016-07-12T21:58:45.492Z,59.27
2016-07-12T21:59:45.499Z,59.17
2016-07-12T22:00:46.232Z,59.36
2016-07-12T22:01:45.609Z,58.88
2016-07-12T22:02:46.250Z,58.88
2016-07-12T22:03:45.524Z,59.17
2016-07-12T22:04:45.537Z,59.43
2016-07-12T22:06:45.569Z,59.33
2016-07-12T22:07:45.569Z,59.17
2016-07-12T22:08:45.789Z,59.52
2016-07-12T22:10:00.456Z,60.1
2016-07-12T22:10:45.909Z,59.91
2016-07-12T22:11:45.812Z,59.91
2016-07-12T22:12:45.825Z,60.1
2016-07-12T22:13:46.362Z,60
2016-07-12T22:14:46.369Z,59.43
2016-07-12T22:15:45.858Z,59.81
2016-07-12T22:16:45.703Z,59.91
2016-07-12T22:17:45.698Z,59.72
2016-07-12T22:18:45.693Z,59.62
2016-07-12T22:19:45.717Z,59.33
2016-07-12T22:20:45.718Z,58.75
2016-07-12T22:21:45.725Z,58.75
2016-07-12T22:22:45.926Z,58.85
2016-07-12T22:23:45.945Z,58.95
2016-07-12T22:24:45.952Z,58.85
2016-07-12T22:25:45.818Z,59.33
2016-07-12T22:26:46.507Z,58.17
2016-07-12T22:27:46.529Z,58.37
2016-07-12T22:28:46.552Z,58.27
2016-07-12T22:29:45.798Z,58.27
2016-07-12T22:30:45.818Z,58.37
2016-07-12T22:31:45.822Z,58.37
2016-07-12T22:32:45.832Z,58.17
2016-07-12T22:33:45.854Z,58.17
2016-07-12T22:34:46.068Z,57.98
2016-07-12T22:35:46.091Z,57.89
2016-07-12T22:36:45.876Z,57.98
2016-07-12T22:37:45.905Z,58.37
2016-07-12T22:38:45.906Z,58.37
2016-07-12T22:39:46.632Z,58.27
2016-07-12T22:40:45.963Z,58.37
2016-07-12T22:41:46.889Z,58.56
2016-07-12T22:42:46.664Z,58.95
2016-07-12T22:43:45.952Z,59.23
2016-07-12T22:44:45.962Z,58.85
2016-07-12T22:45:46.171Z,58.56
2016-07-12T22:46:46.190Z,58.27
2016-07-12T22:47:46.733Z,58.08
2016-07-12T22:48:45.996Z,58.17
2016-07-12T22:49:46.732Z,58.17
2016-07-12T22:50:46.675Z,58.17
2016-07-12T22:51:46.962Z,58.27
2016-07-12T22:52:46.079Z,58.17
2016-07-12T22:53:46.100Z,58.56
2016-07-12T22:54:46.263Z,58.47
2016-07-12T22:55:47.017Z,58.56
2016-07-12T22:56:46.829Z,58.75
2016-07-12T22:57:46.815Z,58.85
2016-07-12T22:58:46.104Z,59.14
2016-07-12T22:59:46.163Z,59.43
2016-07-12T23:00:46.137Z,58.95
2016-07-12T23:01:46.135Z,59.43
2016-07-12T23:02:46.192Z,58.75
2016-07-12T23:03:46.166Z,58.95
2016-07-12T23:04:46.165Z,59.01
2016-07-12T23:05:46.202Z,58.75
2016-07-12T23:06:46.412Z,58.92
2016-07-12T23:07:46.936Z,58.72
2016-07-12T23:09:01.472Z,58.92
2016-07-12T23:09:46.423Z,58.92
2016-07-12T23:10:46.966Z,59.04
2016-07-12T23:11:46.969Z,58.82
2016-07-12T23:12:46.986Z,59.69
2016-07-12T23:13:46.257Z,59.11
2016-07-12T23:14:46.302Z,59.4
2016-07-12T23:15:47.031Z,59.4
2016-07-12T23:16:46.282Z,59.11
2016-07-12T23:17:46.314Z,59.2
2016-07-12T23:18:46.309Z,59.11
2016-07-12T23:19:46.351Z,58.92
2016-07-12T23:20:46.528Z,58.72
2016-07-12T23:22:46.553Z,58.15
2016-07-12T23:23:46.359Z,58.92
2016-07-12T23:24:46.603Z,58.82
2016-07-12T23:25:47.126Z,59.2
2016-07-12T23:26:46.399Z,59.11
2016-07-12T23:27:47.141Z,59.88
2016-07-12T23:28:46.412Z,59.88
2016-07-12T23:29:46.430Z,59.88
2016-07-12T23:30:46.459Z,59.97
2016-07-12T23:33:01.519Z,60.07
2016-07-12T23:33:46.458Z,59.78
2016-07-12T23:34:47.218Z,59.78
2016-07-12T23:35:46.514Z,59.78
2016-07-12T23:36:47.425Z,59.97
2016-07-12T23:37:46.503Z,59.69
2016-07-12T23:38:46.513Z,59.88
2016-07-12T23:39:46.533Z,59.88
2016-07-12T23:40:47.869Z,59.88
2016-07-12T23:41:47.267Z,59.59
2016-07-12T23:42:46.554Z,59.49
2016-07-12T23:43:46.604Z,59.88
2016-07-12T23:44:47.299Z,60.07
2016-07-12T23:45:46.588Z,59.97
2016-07-12T23:46:46.602Z,59.97
2016-07-12T23:47:47.338Z,60.65
2016-07-12T23:48:46.809Z,61.42
2016-07-12T23:49:46.632Z,61.22
2016-07-12T23:50:46.633Z,60.55
2016-07-12T23:51:46.893Z,60.75
2016-07-12T23:52:46.878Z,61.1
2016-07-12T23:53:47.068Z,60.72
2016-07-12T23:55:01.740Z,60.24
2016-07-12T23:55:46.681Z,60.81
2016-07-12T23:56:47.444Z,60.72
2016-07-12T23:59:47.676Z,60.91
